createdAt,value
2023-01-01T00:01:45.552Z,10.30
2023-01-01T00:04:17.581Z,10.31
2023-01-01T00:06:49.513Z,10.25
2023-01-01T00:09:42.854Z,10.51
2023-01-01T00:12:14.857Z,10.46
2023-01-01T00:14:46.719Z,10.46
2023-01-01T00:17:18.596Z,10.56
2023-01-01T00:19:50.554Z,10.52
2023-01-01T00:25:14.901Z,10.55
2023-01-01T00:27:46.877Z,10.58
2023-01-01T00:30:19.208Z,10.72
2023-01-01T00:32:54.759Z,10.75
2023-01-01T00:35:28.259Z,10.73
2023-01-01T00:38:00.206Z,10.82
2023-01-01T00:40:32.220Z,10.83
2023-01-01T00:43:04.161Z,10.73
2023-01-01T00:45:36.260Z,10.83
2023-01-01T00:48:08.262Z,10.79
2023-01-01T00:50:40.085Z,10.80
2023-01-01T00:53:11.992Z,10.51
2023-01-01T00:55:46.893Z,10.89
2023-01-01T00:58:20.013Z,10.89
2023-01-01T01:00:53.198Z,10.86
2023-01-01T01:03:28.566Z,10.85
2023-01-01T01:06:03.490Z,10.94
2023-01-01T01:08:36.654Z,10.86
2023-01-01T01:11:14.337Z,10.73
2023-01-01T01:13:49.324Z,10.83
2023-01-01T01:16:28.639Z,10.86
2023-01-01T01:19:03.427Z,10.81
2023-01-01T01:21:35.679Z,10.79
2023-01-01T01:24:07.885Z,10.69
2023-01-01T01:26:39.836Z,10.89
2023-01-01T01:29:11.846Z,10.77
2023-01-01T01:31:43.712Z,10.92
2023-01-01T01:34:21.176Z,10.77
2023-01-01T01:36:56.603Z,10.88
2023-01-01T01:39:28.590Z,10.78
2023-01-01T01:42:02.717Z,10.60
2023-01-01T01:44:49.524Z,10.86
2023-01-01T01:47:24.553Z,10.71
2023-01-01T01:50:04.214Z,10.81
2023-01-01T01:52:40.171Z,10.65
2023-01-01T01:55:13.916Z,10.79
2023-01-01T01:57:46.014Z,10.83
2023-01-01T02:00:17.995Z,10.79
2023-01-01T02:03:03.195Z,10.81
2023-01-01T02:05:36.394Z,10.81
2023-01-01T02:08:09.305Z,10.78
2023-01-01T02:10:41.256Z,10.67
2023-01-01T02:13:14.326Z,10.71
2023-01-01T02:15:53.599Z,10.75
2023-01-01T02:18:37.870Z,10.73
2023-01-01T02:21:17.463Z,10.68
2023-01-01T02:24:14.123Z,10.80
2023-01-01T02:27:38.502Z,10.73
2023-01-01T02:30:12.204Z,10.70
2023-01-01T02:32:50.600Z,10.68
2023-01-01T02:35:38.858Z,10.77
2023-01-01T02:38:25.781Z,10.77
2023-01-01T02:41:02.133Z,10.69
2023-01-01T02:43:34.070Z,10.65
2023-01-01T02:46:08.576Z,10.73
2023-01-01T02:48:42.489Z,10.87
2023-01-01T02:51:14.440Z,10.86
2023-01-01T02:54:06.568Z,10.85
2023-01-01T02:56:42.594Z,10.88
2023-01-01T02:59:51.300Z,10.88
2023-01-01T03:02:56.942Z,10.87
2023-01-01T03:05:33.255Z,10.83
2023-01-01T03:08:17.507Z,10.68
2023-01-01T03:10:49.306Z,10.89
2023-01-01T03:13:51.741Z,10.76
2023-01-01T03:16:26.622Z,10.96
2023-01-01T03:19:12.070Z,10.92
2023-01-01T03:21:47.041Z,11.05
2023-01-01T03:24:32.787Z,11.03
2023-01-01T03:27:37.699Z,11.04
2023-01-01T03:30:13.501Z,11.05
2023-01-01T03:33:00.563Z,11.03
2023-01-01T03:35:58.353Z,11.20
2023-01-01T03:38:39.425Z,11.25
2023-01-01T03:41:15.127Z,11.22
2023-01-01T03:44:04.925Z,11.31
2023-01-01T03:46:38.350Z,11.33
2023-01-01T03:49:13.396Z,11.32
2023-01-01T03:51:59.455Z,11.32
2023-01-01T03:54:37.799Z,11.43
2023-01-01T03:57:21.028Z,11.41
2023-01-01T04:00:02.694Z,11.43
2023-01-01T04:02:43.164Z,11.36
2023-01-01T04:05:17.325Z,11.33
2023-01-01T04:10:22.800Z,11.29
2023-01-01T04:12:57.476Z,11.55
2023-01-01T04:15:29.525Z,11.48
2023-01-01T04:18:01.745Z,11.43
2023-01-01T04:20:33.634Z,11.48
2023-01-01T04:23:05.648Z,11.45
2023-01-01T04:25:37.606Z,11.56
2023-01-01T04:28:09.581Z,11.50
2023-01-01T04:33:12.018Z,11.66
2023-01-01T04:35:43.900Z,11.67
2023-01-01T04:38:15.757Z,11.65
2023-01-01T04:40:58.444Z,11.87
2023-01-01T04:43:31.868Z,11.82
2023-01-01T04:46:04.803Z,11.99
2023-01-01T04:48:36.752Z,12.04
2023-01-01T04:51:11.055Z,12.01
2023-01-01T04:53:43.154Z,12.20
2023-01-01T04:56:18.848Z,12.18
2023-01-01T04:58:50.935Z,12.21
2023-01-01T05:01:26.176Z,12.43
2023-01-01T05:03:59.532Z,12.43
2023-01-01T05:06:31.448Z,12.43
2023-01-01T05:09:04.357Z,12.38
2023-01-01T05:11:36.939Z,12.34
2023-01-01T05:14:08.854Z,12.28
2023-01-01T05:16:41.573Z,12.58
2023-01-01T05:19:14.343Z,12.41
2023-01-01T05:21:46.782Z,12.41
2023-01-01T05:24:18.681Z,12.40
2023-01-01T05:26:50.549Z,12.41
2023-01-01T05:29:24.507Z,12.17
2023-01-01T05:31:56.491Z,12.18
2023-01-01T05:36:59.944Z,12.13
2023-01-01T05:39:31.931Z,12.26
2023-01-01T05:42:03.939Z,12.24
2023-01-01T05:44:35.980Z,11.87
2023-01-01T05:47:07.901Z,12.19
2023-01-01T05:49:39.999Z,12.12
2023-01-01T05:52:11.827Z,12.04
2023-01-01T05:54:43.755Z,12.17
2023-01-01T05:57:16.256Z,12.19
2023-01-01T05:59:48.596Z,12.12
2023-01-01T06:02:20.750Z,12.04
2023-01-01T06:04:52.850Z,12.09
2023-01-01T06:07:24.883Z,12.27
2023-01-01T06:09:56.901Z,12.21
2023-01-01T06:12:29.209Z,12.12
2023-01-01T06:15:01.208Z,12.22
2023-01-01T06:17:34.672Z,12.11
2023-01-01T06:20:07.144Z,12.19
2023-01-01T06:22:39.122Z,12.05
2023-01-01T06:25:12.268Z,12.21
2023-01-01T06:27:44.128Z,12.25
2023-01-01T06:30:15.977Z,12.21
2023-01-01T06:32:47.852Z,12.20
2023-01-01T06:35:19.718Z,12.14
2023-01-01T06:37:51.572Z,12.13
2023-01-01T06:40:23.464Z,12.24
2023-01-01T06:42:55.432Z,12.14
2023-01-01T06:45:27.303Z,12.09
2023-01-01T06:47:59.164Z,12.14
2023-01-01T06:50:31.073Z,12.03
2023-01-01T06:53:02.921Z,12.05
2023-01-01T06:55:35.912Z,12.19
2023-01-01T06:58:10.083Z,12.13
2023-01-01T07:00:41.955Z,12.22
2023-01-01T07:03:13.840Z,12.25
2023-01-01T07:05:45.846Z,12.46
2023-01-01T07:08:17.764Z,12.37
2023-01-01T07:10:49.593Z,12.36
2023-01-01T07:13:21.455Z,12.52
2023-01-01T07:15:54.053Z,12.51
2023-01-01T07:18:26.385Z,12.54
2023-01-01T07:21:00.506Z,12.52
2023-01-01T07:23:35.202Z,12.45
2023-01-01T07:26:07.087Z,12.43
2023-01-01T07:28:42.609Z,12.67
2023-01-01T07:31:14.516Z,12.59
2023-01-01T07:33:46.410Z,12.66
2023-01-01T07:36:20.436Z,12.74
2023-01-01T07:38:52.277Z,12.72
2023-01-01T07:41:24.494Z,12.62
2023-01-01T07:43:56.429Z,12.78
2023-01-01T07:46:29.270Z,12.88
2023-01-01T07:49:01.177Z,12.54
2023-01-01T07:51:33.124Z,12.83
2023-01-01T07:54:07.343Z,12.81
2023-01-01T07:56:39.629Z,12.98
2023-01-01T07:59:14.402Z,12.92
2023-01-01T08:01:49.036Z,12.85
2023-01-01T08:04:21.102Z,13.13
2023-01-01T08:06:54.051Z,13.14
2023-01-01T08:09:25.968Z,13.07
2023-01-01T08:11:59.027Z,13.21
2023-01-01T08:14:30.945Z,13.28
2023-01-01T08:17:02.987Z,13.13
2023-01-01T08:19:34.942Z,13.22
2023-01-01T08:22:06.979Z,13.48
2023-01-01T08:24:38.941Z,13.41
2023-01-01T08:27:14.683Z,13.55
2023-01-01T08:29:46.768Z,13.53
2023-01-01T08:32:18.642Z,13.55
2023-01-01T08:34:50.532Z,13.72
2023-01-01T08:37:23.006Z,13.60
2023-01-01T08:39:54.960Z,13.66
2023-01-01T08:42:26.883Z,13.83
2023-01-01T08:44:58.740Z,13.67
2023-01-01T08:47:30.636Z,13.72
2023-01-01T08:50:02.522Z,13.88
2023-01-01T08:52:34.480Z,14.17
2023-01-01T08:55:06.758Z,14.04
2023-01-01T08:57:38.635Z,14.09
2023-01-01T09:00:11.292Z,14.23
2023-01-01T09:02:43.498Z,14.34
2023-01-01T09:05:15.689Z,14.43
2023-01-01T09:07:47.643Z,14.04
2023-01-01T09:10:19.683Z,14.36
2023-01-01T09:12:51.537Z,14.41
2023-01-01T09:15:23.485Z,14.46
2023-01-01T09:17:55.483Z,14.48
2023-01-01T09:20:27.443Z,14.64
2023-01-01T09:23:05.505Z,14.38
2023-01-01T09:25:38.448Z,14.86
2023-01-01T09:28:14.456Z,14.84
2023-01-01T09:30:46.304Z,14.88
2023-01-01T09:33:21.337Z,14.86
2023-01-01T09:35:53.218Z,14.82
2023-01-01T09:38:25.084Z,14.81
2023-01-01T09:41:08.951Z,14.87
2023-01-01T09:44:28.952Z,15.02
2023-01-01T09:47:03.002Z,15.06
2023-01-01T09:49:39.986Z,15.06
2023-01-01T09:52:14.983Z,15.02
2023-01-01T09:55:18.991Z,15.27
2023-01-01T09:57:50.973Z,15.25
2023-01-01T10:00:23.166Z,15.15
2023-01-01T10:03:19.789Z,15.36
2023-01-01T10:06:24.227Z,15.35
2023-01-01T10:09:17.089Z,15.40
2023-01-01T10:12:07.812Z,15.45
2023-01-01T10:14:44.005Z,15.29
2023-01-01T10:17:36.912Z,15.41
2023-01-01T10:20:25.787Z,15.21
2023-01-01T10:23:10.750Z,15.25
2023-01-01T10:25:43.531Z,15.39
2023-01-01T10:28:18.331Z,15.50
2023-01-01T10:30:53.463Z,15.48
2023-01-01T10:33:25.703Z,15.23
2023-01-01T10:35:57.849Z,15.47
2023-01-01T10:38:29.860Z,15.38
2023-01-01T10:41:13.656Z,15.51
2023-01-01T10:43:50.239Z,15.46
2023-01-01T10:46:31.830Z,15.54
2023-01-01T10:49:12.971Z,15.55
2023-01-01T10:51:48.563Z,15.46
2023-01-01T10:54:40.577Z,15.46
2023-01-01T10:57:21.066Z,15.33
2023-01-01T10:59:54.553Z,15.38
2023-01-01T11:02:28.608Z,15.43
2023-01-01T11:05:22.302Z,15.58
2023-01-01T11:07:54.529Z,15.53
2023-01-01T11:10:26.540Z,15.54
2023-01-01T11:13:06.464Z,15.40
2023-01-01T11:15:41.559Z,15.60
2023-01-01T11:18:22.984Z,15.55
2023-01-01T11:20:56.645Z,15.53
2023-01-01T11:23:35.135Z,15.56
2023-01-01T11:26:16.229Z,15.71
2023-01-01T11:29:17.394Z,15.62
2023-01-01T11:31:49.828Z,15.49
2023-01-01T11:34:32.010Z,15.54
2023-01-01T11:37:36.302Z,15.61
2023-01-01T11:40:19.095Z,15.56
2023-01-01T11:42:58.346Z,15.51
2023-01-01T11:45:39.407Z,15.62
2023-01-01T11:48:33.441Z,15.71
2023-01-01T11:51:08.381Z,15.45
2023-01-01T11:53:42.194Z,15.67
2023-01-01T11:56:21.349Z,15.77
2023-01-01T11:59:00.434Z,15.57
2023-01-01T12:01:52.728Z,15.63
2023-01-01T12:04:31.851Z,15.55
2023-01-01T12:07:08.279Z,15.40
2023-01-01T12:10:21.953Z,15.36
2023-01-01T12:13:06.566Z,15.47
2023-01-01T12:15:47.090Z,15.47
2023-01-01T12:18:27.838Z,15.39
2023-01-01T12:21:05.642Z,15.42
2023-01-01T12:23:37.546Z,15.32
2023-01-01T12:26:09.321Z,15.32
2023-01-01T12:29:01.059Z,15.24
2023-01-01T12:31:52.055Z,15.18
2023-01-01T12:34:55.016Z,15.12
2023-01-01T12:38:04.999Z,15.11
2023-01-01T12:41:02.019Z,15.09
2023-01-01T12:43:48.351Z,14.94
2023-01-01T12:46:38.073Z,15.05
2023-01-01T12:49:43.728Z,15.16
2023-01-01T12:52:48.096Z,15.13
2023-01-01T12:55:44.860Z,15.08
2023-01-01T12:58:20.417Z,14.98
2023-01-01T13:01:01.369Z,14.93
2023-01-01T13:04:00.313Z,15.00
2023-01-01T13:06:38.095Z,15.02
2023-01-01T13:09:25.419Z,14.96
2023-01-01T13:12:01.879Z,14.98
2023-01-01T13:14:45.363Z,14.71
2023-01-01T13:17:29.062Z,14.98
2023-01-01T13:20:23.167Z,14.98
2023-01-01T13:22:55.090Z,14.84
2023-01-01T13:25:26.979Z,14.56
2023-01-01T13:28:03.689Z,14.89
2023-01-01T13:30:38.603Z,14.85
2023-01-01T13:33:37.072Z,14.70
2023-01-01T13:36:09.198Z,14.82
2023-01-01T13:38:53.787Z,14.80
2023-01-01T13:41:25.800Z,14.72
2023-01-01T13:44:00.656Z,14.71
2023-01-01T13:46:41.621Z,14.61
2023-01-01T13:49:35.132Z,14.57
2023-01-01T13:52:40.968Z,14.48
2023-01-01T13:55:49.645Z,14.32
2023-01-01T13:58:39.760Z,14.34
2023-01-01T14:01:49.321Z,14.26
2023-01-01T14:04:34.919Z,13.99
2023-01-01T14:07:53.476Z,14.05
2023-01-01T14:10:28.832Z,13.98
2023-01-01T14:13:06.725Z,13.91
2023-01-01T14:15:54.123Z,13.74
2023-01-01T14:18:34.196Z,13.78
2023-01-01T14:21:27.693Z,13.74
2023-01-01T14:24:05.496Z,13.66
2023-01-01T14:26:39.532Z,13.59
2023-01-01T14:29:26.690Z,13.25
2023-01-01T14:32:02.736Z,13.48
2023-01-01T14:34:37.709Z,13.27
2023-01-01T14:37:24.035Z,13.25
2023-01-01T14:40:16.595Z,13.20
2023-01-01T14:42:50.705Z,13.11
2023-01-01T14:45:23.797Z,12.72
2023-01-01T14:47:57.612Z,12.92
2023-01-01T14:50:32.152Z,12.88
2023-01-01T14:53:07.668Z,12.62
2023-01-01T14:55:45.869Z,12.68
2023-01-01T14:58:21.234Z,12.71
2023-01-01T15:00:53.400Z,12.52
2023-01-01T15:03:25.672Z,12.58
2023-01-01T15:05:59.996Z,12.55
2023-01-01T15:08:31.891Z,12.42
2023-01-01T15:11:04.854Z,12.33
2023-01-01T15:13:36.773Z,12.38
2023-01-01T15:16:18.498Z,11.98
2023-01-01T15:18:53.361Z,12.27
2023-01-01T15:21:31.158Z,12.30
2023-01-01T15:24:14.671Z,12.25
2023-01-01T15:26:55.263Z,12.23
2023-01-01T15:29:33.579Z,12.21
2023-01-01T15:32:08.785Z,11.95
2023-01-01T15:34:52.590Z,12.06
2023-01-01T15:37:47.282Z,12.08
2023-01-01T15:40:19.146Z,12.02
2023-01-01T15:42:57.031Z,12.03
2023-01-01T15:45:31.563Z,11.98
2023-01-01T15:48:06.496Z,11.96
2023-01-01T15:50:44.512Z,11.95
2023-01-01T15:53:22.250Z,11.85
2023-01-01T15:56:00.901Z,11.83
2023-01-01T15:58:37.715Z,11.88
2023-01-01T16:01:14.365Z,11.86
2023-01-01T16:03:48.581Z,11.76
2023-01-01T16:06:22.115Z,11.84
2023-01-01T16:08:54.548Z,11.83
2023-01-01T16:11:26.818Z,11.83
2023-01-01T16:13:58.741Z,11.77
2023-01-01T16:16:31.549Z,11.85
2023-01-01T16:19:03.560Z,11.70
2023-01-01T16:21:35.489Z,11.67
2023-01-01T16:24:13.671Z,11.77
2023-01-01T16:26:46.757Z,11.68
2023-01-01T16:29:18.717Z,11.60
2023-01-01T16:31:51.453Z,11.75
2023-01-01T16:34:24.485Z,11.68
2023-01-01T16:36:56.392Z,11.62
2023-01-01T16:39:28.360Z,11.67
2023-01-01T16:42:00.719Z,11.68
2023-01-01T16:44:32.679Z,11.38
2023-01-01T16:47:04.647Z,11.55
2023-01-01T16:49:36.775Z,11.57
2023-01-01T16:52:08.940Z,11.62
2023-01-01T16:54:40.976Z,11.64
2023-01-01T16:57:12.979Z,11.79
2023-01-01T16:59:44.825Z,11.77
2023-01-01T17:02:16.803Z,11.84
2023-01-01T17:04:48.764Z,11.84
2023-01-01T17:07:20.741Z,11.84
2023-01-01T17:09:52.605Z,11.96
2023-01-01T17:12:24.461Z,11.93
2023-01-01T17:14:56.330Z,11.98
2023-01-01T17:17:28.244Z,11.80
2023-01-01T17:20:00.337Z,11.87
2023-01-01T17:22:34.407Z,11.88
2023-01-01T17:25:07.244Z,11.84
2023-01-01T17:27:39.140Z,11.84
2023-01-01T17:30:12.022Z,11.75
2023-01-01T17:32:43.974Z,11.75
2023-01-01T17:35:15.895Z,11.81
2023-01-01T17:37:47.751Z,11.75
2023-01-01T17:40:19.664Z,11.80
2023-01-01T17:42:51.659Z,11.53
2023-01-01T17:45:23.666Z,11.71
2023-01-01T17:47:55.615Z,11.70
2023-01-01T17:50:27.939Z,11.41
2023-01-01T17:52:59.939Z,11.51
2023-01-01T17:55:31.879Z,11.67
2023-01-01T17:58:03.851Z,11.40
2023-01-01T18:00:35.773Z,11.56
2023-01-01T18:03:12.932Z,11.66
2023-01-01T18:05:45.129Z,11.43
2023-01-01T18:08:17.210Z,11.54
2023-01-01T18:10:56.411Z,11.68
2023-01-01T18:13:28.321Z,11.61
2023-01-01T18:16:01.591Z,11.56
2023-01-01T18:18:40.619Z,11.60
2023-01-01T18:21:19.525Z,11.39
2023-01-01T18:23:53.838Z,11.16
2023-01-01T18:26:29.223Z,11.44
2023-01-01T18:29:02.927Z,11.10
2023-01-01T18:31:35.800Z,11.28
2023-01-01T18:34:07.851Z,11.35
2023-01-01T18:36:40.124Z,11.33
2023-01-01T18:39:27.500Z,11.32
2023-01-01T18:42:05.317Z,11.32
2023-01-01T18:44:37.318Z,11.00
2023-01-01T18:47:21.270Z,11.26
2023-01-01T18:50:06.806Z,11.17
2023-01-01T18:52:38.720Z,10.88
2023-01-01T18:55:13.909Z,11.12
2023-01-01T18:58:30.914Z,11.23
2023-01-01T19:01:14.141Z,11.30
2023-01-01T19:03:51.569Z,10.88
2023-01-01T19:06:33.289Z,11.19
2023-01-01T19:09:25.701Z,11.22
2023-01-01T19:12:13.023Z,11.15
2023-01-01T19:14:45.019Z,11.06
2023-01-01T19:17:23.838Z,11.19
2023-01-01T19:19:55.815Z,11.09
2023-01-01T19:22:31.571Z,11.12
2023-01-01T19:25:23.681Z,11.08
2023-01-01T19:27:56.027Z,11.13
2023-01-01T19:30:27.985Z,11.15
2023-01-01T19:32:59.893Z,11.11
2023-01-01T19:35:31.842Z,11.10
2023-01-01T19:38:04.035Z,11.11
2023-01-01T19:40:36.016Z,11.12
2023-01-01T19:43:07.985Z,11.05
2023-01-01T19:45:39.908Z,10.70
2023-01-01T19:48:11.870Z,10.91
2023-01-01T19:50:43.725Z,10.95
2023-01-01T19:53:16.046Z,10.93
2023-01-01T19:55:48.304Z,11.08
2023-01-01T19:58:20.310Z,10.87
2023-01-01T20:00:53.850Z,10.88
2023-01-01T20:03:52.615Z,10.93
2023-01-01T20:06:18.376Z,10.85
2023-01-01T20:08:50.302Z,10.65
2023-01-01T20:11:22.567Z,10.90
2023-01-01T20:13:54.488Z,10.85
2023-01-01T20:16:26.566Z,10.77
2023-01-01T20:18:58.561Z,10.82
2023-01-01T20:21:49.335Z,10.80
2023-01-01T20:24:21.191Z,10.79
2023-01-01T20:26:53.055Z,10.68
2023-01-01T20:29:24.949Z,10.73
2023-01-01T20:31:59.300Z,10.53
2023-01-01T20:34:31.362Z,10.42
2023-01-01T20:37:21.537Z,10.59
2023-01-01T20:39:54.263Z,10.59
2023-01-01T20:42:27.982Z,10.50
2023-01-01T20:45:00.158Z,10.54
2023-01-01T20:47:32.170Z,10.57
2023-01-01T20:50:04.289Z,10.52
2023-01-01T20:52:36.321Z,10.38
2023-01-01T20:55:08.690Z,10.44
2023-01-01T20:57:40.646Z,10.42
2023-01-01T21:00:13.020Z,10.39
2023-01-01T21:02:45.090Z,10.32
2023-01-01T21:05:17.339Z,10.38
2023-01-01T21:07:49.155Z,10.36
2023-01-01T21:10:21.139Z,10.47
2023-01-01T21:12:53.040Z,10.33
2023-01-01T21:15:25.040Z,10.16
2023-01-01T21:17:57.056Z,10.44
2023-01-01T21:20:35.302Z,10.24
2023-01-01T21:23:14.380Z,10.48
2023-01-01T21:25:51.812Z,10.43
2023-01-01T21:28:28.175Z,10.32
2023-01-01T21:31:01.352Z,10.20
2023-01-01T21:33:33.234Z,10.22
2023-01-01T21:36:23.678Z,10.36
2023-01-01T21:39:12.618Z,10.23
2023-01-01T21:41:44.528Z,10.27
2023-01-01T21:44:16.381Z,10.25
2023-01-01T21:46:55.400Z,9.97
2023-01-01T21:49:36.752Z,10.26
2023-01-01T21:52:19.464Z,9.98
2023-01-01T21:54:53.249Z,10.13
2023-01-01T21:57:25.844Z,10.08
2023-01-01T21:59:57.729Z,10.00
2023-01-01T22:02:36.876Z,10.22
2023-01-01T22:05:26.656Z,10.18
2023-01-01T22:08:22.529Z,10.17
2023-01-01T22:10:54.450Z,10.13
2023-01-01T22:13:28.617Z,10.10
2023-01-01T22:16:00.542Z,10.05
2023-01-01T22:18:38.777Z,9.99
2023-01-01T22:21:18.580Z,10.12
2023-01-01T22:23:56.930Z,9.81
2023-01-01T22:26:30.455Z,9.82
2023-01-01T22:29:08.391Z,9.97
2023-01-01T22:31:45.354Z,9.71
2023-01-01T22:34:23.178Z,9.92
2023-01-01T22:36:55.993Z,9.54
2023-01-01T22:39:35.654Z,9.59
2023-01-01T22:42:14.346Z,9.64
2023-01-01T22:45:14.420Z,9.66
2023-01-01T22:47:46.420Z,9.39
2023-01-01T22:50:25.689Z,9.58
2023-01-01T22:52:58.183Z,9.44
2023-01-01T22:55:30.070Z,9.40
2023-01-01T22:58:01.933Z,9.41
2023-01-01T23:00:33.805Z,9.22
2023-01-01T23:03:05.781Z,9.23
2023-01-01T23:05:37.761Z,9.13
2023-01-01T23:08:09.782Z,9.17
2023-01-01T23:10:41.731Z,9.16
2023-01-01T23:13:32.405Z,9.20
2023-01-01T23:16:05.207Z,9.21
2023-01-01T23:18:37.886Z,9.24
2023-01-01T23:21:24.149Z,9.10
2023-01-01T23:24:00.674Z,8.97
2023-01-01T23:26:32.986Z,9.10
2023-01-01T23:29:06.530Z,9.13
2023-01-01T23:31:40.376Z,9.07
2023-01-01T23:34:12.760Z,9.09
2023-01-01T23:36:45.296Z,9.07
2023-01-01T23:39:17.265Z,8.98
2023-01-01T23:41:49.668Z,9.06
2023-01-01T23:44:21.605Z,8.95
2023-01-01T23:46:54.146Z,8.94
2023-01-01T23:49:27.136Z,8.99
2023-01-01T23:51:59.948Z,8.91
2023-01-01T23:54:31.903Z,8.84
2023-01-01T23:57:03.836Z,8.75
2023-01-01T23:59:35.675Z,8.90
